Time;durP1;ratioP1;P1;durP2;ratioP2;P2;SDS_P1;SDS_P2;PMS_P1;PMS_P2;Temp;Humidity;BMP_temperature;BMP_pressure;BME280_temperature;BME280_humidity;BME280_pressure;Samples;Min_cycle;Max_cycle;Signal;HPM_P1;HPM_P2
2022/04/12 00:00:56;;;;;;;3.65;1.77;;;7.70;99.90;;;;;;5068389;28;20047;-81
2022/04/12 00:03:21;;;;;;;5.45;1.73;;;6.70;99.90;;;;;;5069838;28;20036;-80
2022/04/12 00:05:47;;;;;;;4.95;1.85;;;6.60;99.90;;;;;;5068515;28;20033;-80
2022/04/12 00:08:13;;;;;;;4.38;1.60;;;7.60;99.90;;;;;;5052708;28;20032;-80
2022/04/12 00:10:39;;;;;;;1.83;1.20;;;6.70;99.90;;;;;;5069123;28;20449;-82
2022/04/12 00:13:05;;;;;;;5.10;1.50;;;6.60;99.90;;;;;;5035441;28;20048;-81
2022/04/12 00:15:31;;;;;;;6.28;2.00;;;6.60;99.90;;;;;;5052623;28;20052;-80
2022/04/12 00:20:41;;;;;;;6.25;2.03;;;6.60;99.90;;;;;;5055249;28;20051;-79
2022/04/12 00:23:07;;;;;;;3.95;2.10;;;6.50;99.90;;;;;;5086518;28;20051;-80
2022/04/12 00:25:33;;;;;;;6.82;1.83;;;6.50;99.90;;;;;;5051980;28;20440;-79
2022/04/12 00:27:59;;;;;;;5.28;2.13;;;6.50;99.90;;;;;;5068769;28;20085;-80
2022/04/12 00:30:26;;;;;;;3.63;1.83;;;7.60;99.90;;;;;;5068065;28;20127;-80
2022/04/12 00:32:52;;;;;;;4.07;1.85;;;6.50;99.90;;;;;;5036709;28;20164;-79
2022/04/12 00:35:21;;;;;;;4.18;2.17;;;6.80;99.90;;;;;;5067756;28;20052;-80
2022/04/12 00:37:47;;;;;;;3.78;1.98;;;6.40;99.90;;;;;;5087750;28;20104;-80
2022/04/12 00:40:18;;;;;;;6.75;2.20;;;6.40;99.90;;;;;;5068482;28;20112;-80
2022/04/12 00:42:47;;;;;;;7.82;2.22;;;7.70;99.90;;;;;;5035936;28;20044;-79
2022/04/12 00:45:13;;;;;;;4.15;2.03;;;7.40;99.90;;;;;;5053153;28;20044;-80
2022/04/12 00:47:39;;;;;;;5.47;1.92;;;6.30;99.90;;;;;;5051625;28;20503;-80
2022/04/12 00:50:06;;;;;;;6.85;2.17;;;6.30;99.90;;;;;;5069673;28;20051;-80
2022/04/12 00:52:36;;;;;;;4.55;1.90;;;6.30;99.90;;;;;;5068780;28;20040;-80
2022/04/12 00:55:03;;;;;;;4.68;2.28;;;6.30;99.90;;;;;;5069346;28;20051;-80
2022/04/12 00:57:31;;;;;;;6.22;2.13;;;6.30;99.90;;;;;;5035852;28;20095;-80
2022/04/12 00:59:59;;;;;;;2.28;1.90;;;6.30;99.90;;;;;;5069595;28;20119;-80
2022/04/12 01:02:26;;;;;;;4.47;1.88;;;6.20;99.90;;;;;;5052168;28;20043;-80
2022/04/12 01:04:52;;;;;;;6.75;2.58;;;6.20;99.90;;;;;;5051580;28;20036;-80
2022/04/12 01:07:19;;;;;;;6.40;2.20;;;6.20;99.90;;;;;;5019749;28;20048;-80
2022/04/12 01:09:45;;;;;;;5.88;2.05;;;6.20;99.90;;;;;;5085884;28;20536;-80
2022/04/12 01:12:11;;;;;;;4.32;2.17;;;6.20;99.90;;;;;;5052280;28;20077;-80
2022/04/12 01:14:38;;;;;;;6.10;2.47;;;6.10;99.90;;;;;;5086556;28;20098;-80
2022/04/12 01:17:07;;;;;;;6.63;2.63;;;6.10;99.90;;;;;;5086013;28;20051;-81
2022/04/12 01:19:34;;;;;;;8.52;2.22;;;6.20;99.90;;;;;;5068687;28;20487;-81
2022/04/12 01:22:11;;;;;;;4.15;2.13;;;6.00;99.90;;;;;;5067597;28;20476;-80
2022/04/12 01:24:38;;;;;;;6.05;2.35;;;6.00;99.90;;;;;;5069411;28;20098;-80
2022/04/12 01:27:04;;;;;;;8.05;2.03;;;6.00;99.90;;;;;;5067623;28;20040;-79
2022/04/12 01:29:35;;;;;;;7.57;3.03;;;6.00;99.90;;;;;;5071162;28;20108;-79
2022/04/12 01:32:01;;;;;;;5.50;2.38;;;6.00;99.90;;;;;;5072037;28;20490;-79
2022/04/12 01:34:28;;;;;;;12.02;3.00;;;5.90;99.90;;;;;;5071449;28;20518;-79
2022/04/12 01:36:54;;;;;;;7.20;2.42;;;5.90;99.90;;;;;;5090613;28;20044;-79
2022/04/12 01:39:20;;;;;;;9.73;3.00;;;5.90;99.90;;;;;;5071152;28;20040;-79
2022/04/12 01:41:46;;;;;;;11.48;2.97;;;5.90;99.90;;;;;;5055770;28;20036;-80
2022/04/12 01:44:12;;;;;;;7.70;2.67;;;5.90;99.90;;;;;;5089581;28;20047;-79
2022/04/12 01:46:38;;;;;;;5.15;3.10;;;6.40;99.90;;;;;;5072011;28;20431;-80
2022/04/12 01:49:03;;;;;;;5.55;2.55;;;5.80;99.90;;;;;;5071704;28;20043;-80
2022/04/12 01:51:29;;;;;;;6.70;3.08;;;5.90;99.90;;;;;;5054381;28;20044;-80
2022/04/12 01:53:55;;;;;;;9.93;2.85;;;5.80;99.90;;;;;;5022420;28;20079;-79
2022/04/12 01:56:21;;;;;;;5.38;2.83;;;5.80;99.90;;;;;;5070950;28;20051;-80
2022/04/12 01:58:46;;;;;;;4.70;2.55;;;5.80;99.90;;;;;;5072155;28;20487;-79
2022/04/12 02:01:12;;;;;;;5.38;2.80;;;5.80;99.90;;;;;;5089163;28;20087;-79
2022/04/12 02:03:39;;;;;;;4.97;2.95;;;5.80;99.90;;;;;;5071618;28;20141;-79
2022/04/12 02:06:05;;;;;;;7.20;3.38;;;5.80;99.90;;;;;;5054543;28;20463;-79
2022/04/12 02:08:31;;;;;;;5.15;2.70;;;5.80;99.90;;;;;;5070779;28;20090;-79
2022/04/12 02:10:56;;;;;;;6.70;2.80;;;5.80;99.90;;;;;;5055402;28;20048;-79
2022/04/12 02:13:22;;;;;;;7.63;3.22;;;6.20;99.90;;;;;;5054101;28;20048;-80
2022/04/12 02:15:48;;;;;;;5.88;2.80;;;5.80;99.90;;;;;;5071422;28;20064;-80
2022/04/12 02:18:13;;;;;;;7.65;2.78;;;5.80;99.90;;;;;;5070458;28;20052;-80
2022/04/12 02:20:39;;;;;;;7.25;2.83;;;5.70;99.90;;;;;;5071084;28;20044;-80
2022/04/12 02:23:05;;;;;;;4.93;3.30;;;5.70;99.90;;;;;;5070896;28;20036;-81
2022/04/12 02:25:31;;;;;;;6.97;3.35;;;5.70;99.90;;;;;;5088891;28;20047;-81
2022/04/12 02:27:57;;;;;;;8.85;3.20;;;5.70;99.90;;;;;;5054574;28;20050;-81
2022/04/12 02:30:23;;;;;;;8.25;3.45;;;6.80;99.90;;;;;;5088568;28;20126;-80
2022/04/12 02:32:48;;;;;;;10.63;3.67;;;5.70;99.90;;;;;;5055034;28;20076;-80
2022/04/12 02:35:14;;;;;;;6.32;3.17;;;5.70;99.90;;;;;;5020680;28;20479;-80
2022/04/12 02:37:40;;;;;;;8.13;3.95;;;5.70;99.90;;;;;;5071119;28;20565;-79
2022/04/12 02:40:06;;;;;;;7.05;3.55;;;5.60;99.90;;;;;;5019854;28;20391;-79
2022/04/12 02:42:32;;;;;;;10.85;3.72;;;5.60;99.90;;;;;;5054147;28;20202;-81
2022/04/12 02:44:57;;;;;;;14.90;3.72;;;6.60;99.90;;;;;;5071450;28;20186;-80
2022/04/12 02:47:28;;;;;;;6.40;4.03;;;6.30;99.90;;;;;;5070177;28;20537;-81
2022/04/12 02:49:54;;;;;;;16.20;4.03;;;5.60;99.90;;;;;;5071245;28;20510;-80
2022/04/12 02:52:20;;;;;;;7.03;3.67;;;7.10;99.90;;;;;;5036694;28;20044;-80
2022/04/12 02:54:45;;;;;;;9.57;3.55;;;6.90;99.90;;;;;;5070273;28;20043;-80
2022/04/12 02:57:11;;;;;;;11.43;4.47;;;5.50;99.90;;;;;;5036880;28;20044;-80
2022/04/12 02:59:37;;;;;;;8.88;4.22;;;5.50;99.90;;;;;;5053306;28;20520;-80
2022/04/12 03:02:03;;;;;;;8.65;4.20;;;5.50;99.90;;;;;;5070405;28;20040;-80
2022/04/12 03:04:28;;;;;;;7.50;3.63;;;5.50;99.90;;;;;;5053015;28;20127;-80
2022/04/12 03:06:54;;;;;;;6.20;3.20;;;5.50;99.90;;;;;;5089339;28;20081;-80
2022/04/12 03:09:20;;;;;;;7.70;3.80;;;6.20;99.90;;;;;;5053322;28;20526;-80
2022/04/12 03:11:45;;;;;;;7.97;4.18;;;5.50;99.90;;;;;;5070312;28;20450;-80
2022/04/12 03:14:11;;;;;;;9.88;3.72;;;5.50;99.90;;;;;;5053182;28;20083;-80
2022/04/12 03:16:37;;;;;;;8.48;4.15;;;5.50;99.90;;;;;;5087564;28;20074;-80
2022/04/12 03:19:02;;;;;;;10.35;4.00;;;5.50;99.90;;;;;;5070289;28;20106;-79
2022/04/12 03:21:28;;;;;;;7.47;4.03;;;6.00;99.90;;;;;;5070442;28;20040;-79
2022/04/12 03:23:54;;;;;;;10.38;4.00;;;5.50;99.90;;;;;;5038873;28;20079;-79
2022/04/12 03:26:19;;;;;;;8.48;4.20;;;5.50;99.90;;;;;;5054607;28;20047;-80
2022/04/12 03:28:45;;;;;;;7.40;4.10;;;5.50;99.90;;;;;;5073113;28;20048;-79
2022/04/12 03:31:11;;;;;;;11.00;3.92;;;6.30;99.90;;;;;;5036927;28;20436;-79
2022/04/12 03:33:36;;;;;;;7.68;4.50;;;5.50;99.90;;;;;;5053027;28;20077;-80
2022/04/12 03:36:02;;;;;;;8.23;4.07;;;5.40;99.90;;;;;;5088019;28;20162;-80
2022/04/12 03:38:28;;;;;;;5.18;3.92;;;6.80;99.90;;;;;;5087551;28;20169;-80
2022/04/12 03:40:58;;;;;;;8.95;4.38;;;5.40;99.90;;;;;;5053882;28;20044;-80
2022/04/12 03:43:24;;;;;;;8.63;4.80;;;5.30;99.90;;;;;;5052873;28;20509;-80
2022/04/12 03:45:49;;;;;;;13.45;4.50;;;5.30;99.90;;;;;;5070228;28;20048;-81
2022/04/12 03:48:15;;;;;;;6.65;4.45;;;5.40;99.90;;;;;;5069379;28;20044;-80
2022/04/12 03:50:41;;;;;;;6.65;4.53;;;5.30;99.90;;;;;;5087765;28;20411;-79
2022/04/12 03:53:06;;;;;;;10.88;4.88;;;5.30;99.90;;;;;;5069126;28;20047;-81
2022/04/12 03:55:34;;;;;;;7.55;5.00;;;5.30;99.90;;;;;;5052093;28;20047;-81
2022/04/12 03:58:05;;;;;;;6.53;4.75;;;5.20;99.90;;;;;;5070444;28;20048;-81
2022/04/12 04:00:32;;;;;;;7.22;4.95;;;5.20;99.90;;;;;;5035528;28;20113;-81
2022/04/12 04:02:58;;;;;;;8.15;4.60;;;5.20;99.90;;;;;;5036576;28;20119;-81
2022/04/12 04:05:24;;;;;;;9.63;4.85;;;5.10;99.90;;;;;;5087396;28;20116;-81
2022/04/12 04:07:50;;;;;;;7.35;4.97;;;5.10;99.90;;;;;;5068825;28;20052;-81
2022/04/12 04:10:17;;;;;;;6.45;4.68;;;5.10;99.90;;;;;;5069469;28;20051;-81
2022/04/12 04:12:43;;;;;;;9.77;5.22;;;5.10;99.90;;;;;;5068817;28;20047;-81
2022/04/12 04:15:12;;;;;;;9.90;5.20;;;5.10;99.90;;;;;;5036448;28;20036;-81
2022/04/12 04:17:47;;;;;;;11.50;4.90;;;5.10;99.90;;;;;;5051498;28;20056;-79
2022/04/12 04:20:15;;;;;;;12.13;6.05;;;5.10;99.90;;;;;;5052105;28;20093;-79
2022/04/12 04:22:41;;;;;;;8.82;4.93;;;5.00;99.90;;;;;;5068991;28;20773;-80
2022/04/12 04:25:09;;;;;;;13.15;5.25;;;5.00;99.90;;;;;;5068293;28;20055;-79
2022/04/12 04:27:35;;;;;;;9.73;5.60;;;5.00;99.90;;;;;;5052375;28;20048;-80
2022/04/12 04:30:03;;;;;;;8.60;5.30;;;5.00;99.90;;;;;;5051530;28;20043;-80
2022/04/12 04:32:30;;;;;;;9.43;4.95;;;5.00;99.90;;;;;;5052599;28;20032;-82
2022/04/12 04:34:55;;;;;;;10.40;5.22;;;5.00;99.90;;;;;;5035652;28;20048;-82
2022/04/12 04:37:21;;;;;;;12.73;5.20;;;5.00;99.90;;;;;;5052023;28;20119;-81
2022/04/12 04:39:47;;;;;;;8.77;5.18;;;5.00;99.90;;;;;;5068396;28;20047;-82
2022/04/12 04:42:13;;;;;;;8.23;5.13;;;5.00;99.90;;;;;;5086340;28;20166;-82
2022/04/12 04:44:38;;;;;;;8.45;5.70;;;4.90;99.90;;;;;;5069137;28;20273;-80
2022/04/12 04:47:05;;;;;;;12.20;6.05;;;4.90;99.90;;;;;;5086452;28;20115;-81
2022/04/12 04:49:30;;;;;;;10.38;5.90;;;4.90;99.90;;;;;;5087261;28;20052;-83
2022/04/12 04:51:56;;;;;;;10.82;6.15;;;4.90;99.90;;;;;;5086610;28;20042;-84
2022/04/12 04:54:22;;;;;;;9.93;5.45;;;4.90;99.90;;;;;;5035657;28;20047;-82
2022/04/12 04:56:47;;;;;;;11.48;5.63;;;4.90;99.90;;;;;;5051649;28;20403;-82
2022/04/12 04:59:13;;;;;;;12.35;5.90;;;4.90;99.90;;;;;;5068119;28;20047;-85
2022/04/12 05:01:39;;;;;;;14.95;5.10;;;4.90;99.90;;;;;;5052213;28;20035;-82
2022/04/12 05:04:06;;;;;;;7.90;5.03;;;4.90;99.90;;;;;;5036640;28;20044;-84
2022/04/12 05:06:31;;;;;;;11.52;5.95;;;4.80;99.90;;;;;;5073129;28;20048;-82
2022/04/12 05:08:57;;;;;;;8.45;5.65;;;4.80;99.90;;;;;;5071888;28;20447;-81
2022/04/12 05:11:23;;;;;;;7.40;4.95;;;4.80;99.90;;;;;;5055493;28;20453;-83
2022/04/12 05:13:48;;;;;;;9.68;5.57;;;4.80;99.90;;;;;;5054848;28;20128;-80
2022/04/12 05:16:14;;;;;;;9.05;5.95;;;4.80;99.90;;;;;;5068147;28;20131;-80
2022/04/12 05:18:40;;;;;;;11.38;5.57;;;5.30;99.90;;;;;;5070678;28;20044;-81
2022/04/12 05:21:06;;;;;;;8.95;5.88;;;4.80;99.90;;;;;;5068472;28;20142;-81
2022/04/12 05:23:31;;;;;;;8.18;5.60;;;4.80;99.90;;;;;;5070914;28;20047;-81
2022/04/12 05:25:57;;;;;;;12.50;5.85;;;5.50;99.90;;;;;;5069947;28;20407;-81
2022/04/12 05:28:23;;;;;;;10.68;5.40;;;4.80;99.90;;;;;;5069257;28;20032;-81
2022/04/12 05:30:49;;;;;;;9.23;5.43;;;4.90;99.90;;;;;;5069897;28;20041;-81
2022/04/12 05:33:15;;;;;;;10.65;5.80;;;4.90;99.90;;;;;;5069590;28;20055;-81
2022/04/12 05:35:41;;;;;;;11.25;5.75;;;5.00;99.90;;;;;;5068529;28;20056;-80
2022/04/12 05:38:06;;;;;;;9.02;5.72;;;5.10;99.90;;;;;;5068247;28;20114;-81
2022/04/12 05:40:32;;;;;;;11.05;5.60;;;5.20;99.90;;;;;;5069037;28;20134;-81
2022/04/12 05:42:59;;;;;;;10.15;5.75;;;5.30;99.90;;;;;;5069653;28;20040;-81
2022/04/12 05:45:25;;;;;;;9.35;5.82;;;5.50;99.90;;;;;;5069421;28;20358;-81
2022/04/12 05:47:53;;;;;;;10.35;5.95;;;5.60;99.90;;;;;;5052581;28;20127;-82
2022/04/12 05:50:22;;;;;;;11.57;6.38;;;5.80;99.90;;;;;;5070100;28;20127;-81
2022/04/12 05:52:49;;;;;;;12.40;6.18;;;6.00;99.90;;;;;;5070856;28;20076;-82
2022/04/12 05:55:17;;;;;;;10.32;5.70;;;6.30;99.90;;;;;;5051970;28;20520;-82
2022/04/12 05:57:57;;;;;;;7.88;4.90;;;6.30;99.90;;;;;;5052385;28;20364;-81
2022/04/12 06:00:24;;;;;;;9.88;5.65;;;6.50;99.90;;;;;;5069342;28;20044;-82
2022/04/12 06:02:51;;;;;;;8.52;5.15;;;6.80;99.90;;;;;;5068299;28;20041;-82
2022/04/12 06:05:18;;;;;;;12.15;5.25;;;6.70;99.90;;;;;;5051116;28;20051;-82
2022/04/12 06:07:44;;;;;;;7.22;4.80;;;7.30;99.90;;;;;;5050869;28;20041;-82
2022/04/12 06:10:12;;;;;;;10.18;5.95;;;6.80;99.90;;;;;;5070105;28;20041;-82
2022/04/12 06:12:38;;;;;;;10.52;5.50;;;6.80;99.90;;;;;;5050861;28;20045;-82
2022/04/12 06:15:05;;;;;;;13.68;5.20;;;7.00;99.90;;;;;;5051918;28;20051;-82
2022/04/12 06:17:36;;;;;;;10.50;5.45;;;6.80;99.90;;;;;;5089087;28;20104;-82
2022/04/12 06:20:08;;;;;;;9.95;6.15;;;6.90;99.90;;;;;;5071236;28;20059;-81
2022/04/12 06:22:34;;;;;;;8.90;5.18;;;6.90;99.90;;;;;;5071663;28;20048;-82
2022/04/12 06:25:00;;;;;;;8.98;5.45;;;7.90;99.90;;;;;;5070726;28;20036;-82
2022/04/12 06:27:33;;;;;;;9.32;4.47;;;7.10;99.90;;;;;;5071617;28;20055;-82
2022/04/12 06:30:03;;;;;;;;;;;7.10;99.90;;;;;;5054760;28;20080;-82
2022/04/12 06:32:29;;;;;;;8.95;5.20;;;7.20;99.90;;;;;;5070823;28;19939;-82
2022/04/12 06:34:55;;;;;;;10.10;5.72;;;7.80;99.90;;;;;;5070393;28;20044;-82
2022/04/12 06:37:24;;;;;;;9.82;5.68;;;7.40;99.90;;;;;;5070810;28;20135;-81
2022/04/12 06:39:49;;;;;;;13.68;5.25;;;7.50;99.90;;;;;;5088982;28;20077;-81
2022/04/12 06:42:15;;;;;;;12.05;5.88;;;7.70;99.90;;;;;;5070478;28;20054;-81
2022/04/12 06:44:41;;;;;;;14.32;5.18;;;7.60;99.90;;;;;;5037753;28;20512;-81
2022/04/12 06:47:08;;;;;;;11.30;5.70;;;7.70;99.90;;;;;;5070301;28;20044;-80
2022/04/12 06:49:33;;;;;;;6.93;4.78;;;7.70;99.90;;;;;;5089069;28;20051;-81
2022/04/12 06:52:03;;;;;;;9.68;5.43;;;7.80;99.90;;;;;;5070503;28;20043;-82
2022/04/12 06:54:29;;;;;;;8.85;5.45;;;7.80;99.90;;;;;;5037565;28;20117;-82
2022/04/12 06:56:57;;;;;;;10.48;5.35;;;7.90;99.90;;;;;;5053366;28;20084;-82
2022/04/12 06:59:24;;;;;;;10.88;6.15;;;7.90;99.90;;;;;;5053494;28;20040;-82
2022/04/12 07:01:50;;;;;;;7.90;5.22;;;9.40;99.90;;;;;;5054227;28;20035;-82
2022/04/12 07:04:15;;;;;;;8.05;5.07;;;8.50;99.90;;;;;;5053521;28;20093;-82
2022/04/12 07:06:41;;;;;;;10.18;5.45;;;8.10;99.90;;;;;;5053897;28;20052;-82
2022/04/12 07:09:10;;;;;;;12.60;5.93;;;8.10;99.90;;;;;;5053764;28;20047;-82
2022/04/12 07:11:35;;;;;;;7.75;5.45;;;9.10;99.90;;;;;;5053344;28;20044;-77
2022/04/12 07:14:01;;;;;;;12.68;6.10;;;8.30;99.90;;;;;;5069971;28;20089;-77
2022/04/12 07:16:27;;;;;;;12.80;5.78;;;8.30;99.90;;;;;;5087830;28;20044;-77
2022/04/12 07:18:52;;;;;;;8.07;6.07;;;8.30;99.90;;;;;;5070708;28;20508;-77
2022/04/12 07:21:21;;;;;;;11.18;6.32;;;8.40;99.90;;;;;;5069710;28;20047;-77
2022/04/12 07:23:50;;;;;;;8.80;6.13;;;8.50;99.90;;;;;;5053905;28;20250;-77
2022/04/12 07:26:16;;;;;;;9.65;5.50;;;8.60;99.90;;;;;;5052506;28;20071;-77
2022/04/12 07:28:42;;;;;;;11.80;5.45;;;8.50;99.90;;;;;;5053481;28;20062;-77
2022/04/12 07:31:08;;;;;;;9.05;6.22;;;8.60;99.90;;;;;;5070528;28;20491;-78
2022/04/12 07:33:34;;;;;;;10.55;6.28;;;8.70;99.90;;;;;;5055087;28;20042;-78
2022/04/12 07:35:59;;;;;;;10.88;5.72;;;8.80;99.90;;;;;;5055333;28;20099;-78
2022/04/12 07:38:25;;;;;;;8.68;5.28;;;8.90;99.90;;;;;;5071259;28;20517;-76
2022/04/12 07:40:51;;;;;;;11.43;6.40;;;9.00;99.90;;;;;;5053664;28;20048;-78
2022/04/12 07:43:17;;;;;;;10.82;5.15;;;9.10;99.90;;;;;;5069959;28;20048;-77
2022/04/12 07:45:43;;;;;;;8.43;5.53;;;9.30;99.90;;;;;;5053564;28;20040;-78
2022/04/12 07:48:09;;;;;;;13.13;6.88;;;9.30;99.90;;;;;;5088792;28;20032;-78
2022/04/12 07:50:35;;;;;;;9.85;5.72;;;9.50;99.90;;;;;;5053138;28;20051;-77
2022/04/12 07:53:00;;;;;;;7.10;5.25;;;9.60;99.90;;;;;;5088684;28;20437;-77
2022/04/12 07:55:26;;;;;;;8.98;5.47;;;9.80;99.90;;;;;;5069312;28;20047;-77
2022/04/12 07:57:52;;;;;;;8.45;5.80;;;9.80;99.90;;;;;;5088096;28;20036;-77
2022/04/12 08:00:17;;;;;;;10.05;6.00;;;10.10;99.90;;;;;;5087628;28;20059;-77
2022/04/12 08:02:44;;;;;;;9.85;5.70;;;10.10;99.90;;;;;;5069435;28;20135;-76
2022/04/12 08:05:10;;;;;;;11.52;5.90;;;10.20;99.90;;;;;;5053325;28;20054;-76
2022/04/12 08:07:36;;;;;;;9.20;5.57;;;10.40;99.90;;;;;;5052127;28;20040;-77
2022/04/12 08:10:02;;;;;;;9.10;6.13;;;10.40;99.90;;;;;;5069530;28;20068;-77
2022/04/12 08:12:28;;;;;;;11.25;6.00;;;10.50;99.90;;;;;;5052012;28;20121;-77
2022/04/12 08:14:53;;;;;;;11.88;5.60;;;10.80;99.90;;;;;;5052733;28;20524;-77
2022/04/12 08:17:19;;;;;;;10.05;5.30;;;10.70;99.90;;;;;;5051753;28;20469;-78
2022/04/12 08:19:45;;;;;;;9.23;5.70;;;10.80;99.90;;;;;;5069105;28;20044;-78
2022/04/12 08:22:11;;;;;;;8.38;5.18;;;10.90;99.90;;;;;;5019994;28;20047;-77
2022/04/12 08:24:37;;;;;;;9.00;5.07;;;10.90;99.90;;;;;;5035841;28;20082;-78
2022/04/12 08:27:03;;;;;;;12.07;6.07;;;11.10;99.90;;;;;;5087984;28;20444;-77
2022/04/12 08:29:29;;;;;;;10.68;6.30;;;11.20;99.90;;;;;;5087593;28;20368;-77
2022/04/12 08:31:55;;;;;;;7.75;5.55;;;11.40;99.90;;;;;;5052939;28;20518;-76
2022/04/12 08:34:21;;;;;;;8.25;5.28;;;11.50;99.50;;;;;;5068539;28;20067;-76
2022/04/12 08:36:46;;;;;;;9.55;5.32;;;11.70;99.50;;;;;;5069152;28;20407;-78
2022/04/12 08:39:13;;;;;;;10.52;5.43;;;11.90;99.20;;;;;;5054171;28;20082;-78
2022/04/12 08:41:40;;;;;;;9.10;5.45;;;12.10;98.80;;;;;;5055968;28;20059;-78
2022/04/12 08:44:07;;;;;;;8.55;5.05;;;12.30;96.30;;;;;;5040577;28;20134;-78
2022/04/12 08:46:34;;;;;;;9.07;5.40;;;12.40;96.10;;;;;;5073131;28;20123;-78
2022/04/12 08:48:59;;;;;;;9.05;5.35;;;12.50;96.10;;;;;;5056397;28;20036;-78
2022/04/12 08:51:30;;;;;;;10.77;5.18;;;12.60;94.50;;;;;;5073244;28;20051;-78
2022/04/12 08:54:00;;;;;;;9.02;6.32;;;12.60;93.40;;;;;;5073348;28;20044;-77
2022/04/12 08:56:28;;;;;;;7.68;5.30;;;12.70;92.90;;;;;;5091610;28;20051;-78
2022/04/12 08:58:54;;;;;;;11.20;6.15;;;12.80;93.10;;;;;;5039967;28;20493;-78
2022/04/12 09:01:19;;;;;;;7.72;5.25;;;13.00;93.20;;;;;;5073260;28;20395;-77
2022/04/12 09:03:46;;;;;;;13.13;5.70;;;13.10;92.40;;;;;;5073405;28;20047;-77
2022/04/12 09:06:13;;;;;;;8.02;5.20;;;13.10;91.90;;;;;;5073069;28;20036;-78
2022/04/12 09:08:39;;;;;;;8.68;5.13;;;13.10;91.40;;;;;;5091115;28;20051;-77
2022/04/12 09:11:07;;;;;;;9.98;6.20;;;13.20;91.40;;;;;;5091100;28;20430;-76
2022/04/12 09:13:35;;;;;;;9.60;5.55;;;13.30;90.00;;;;;;5091639;28;20167;-76
2022/04/12 09:16:01;;;;;;;8.88;5.60;;;13.40;90.40;;;;;;5090258;28;20048;-77
2022/04/12 09:18:32;;;;;;;9.75;5.35;;;13.50;90.20;;;;;;5073400;28;20576;-76
2022/04/12 09:21:18;;;;;;;8.02;5.85;;;13.50;87.40;;;;;;5072972;28;20059;-76
2022/04/12 09:23:55;;;;;;;10.07;5.53;;;13.50;79.60;;;;;;5090598;28;20051;-77
2022/04/12 09:26:39;;;;;;;10.52;5.55;;;13.50;82.70;;;;;;5072638;28;20403;-77
2022/04/12 09:29:04;;;;;;;9.02;6.40;;;13.70;82.60;;;;;;5071936;28;20044;-77
2022/04/12 09:31:33;;;;;;;9.68;6.18;;;13.90;88.40;;;;;;5090894;28;20135;-76
2022/04/12 09:33:58;;;;;;;8.77;5.22;;;14.20;87.50;;;;;;5072414;28;20055;-77
2022/04/12 09:36:24;;;;;;;9.32;6.38;;;14.40;85.20;;;;;;5090463;28;20032;-77
2022/04/12 09:38:56;;;;;;;8.38;5.63;;;14.60;81.50;;;;;;5072009;28;20050;-76
2022/04/12 09:41:24;;;;;;;11.80;5.77;;;14.80;79.40;;;;;;5055557;28;20124;-78
2022/04/12 09:43:57;;;;;;;12.35;5.55;;;15.00;78.20;;;;;;5055937;28;20060;-78
2022/04/12 09:46:25;;;;;;;9.40;5.72;;;15.00;74.90;;;;;;5089909;28;20406;-78
2022/04/12 09:48:52;;;;;;;11.88;5.72;;;15.10;77.20;;;;;;5089859;28;20124;-78
2022/04/12 09:51:21;;;;;;;11.10;6.00;;;15.30;77.40;;;;;;5071922;28;20040;-77
2022/04/12 09:53:48;;;;;;;10.73;6.00;;;15.50;75.00;;;;;;5089653;28;20407;-77
2022/04/12 09:56:29;;;;;;;11.15;6.18;;;15.70;74.00;;;;;;5071948;28;20098;-77
2022/04/12 09:58:57;;;;;;;10.18;6.38;;;15.70;73.20;;;;;;5071677;28;20445;-77
2022/04/12 10:01:23;;;;;;;9.93;6.18;;;15.90;73.10;;;;;;5090090;28;20072;-77
2022/04/12 10:03:53;;;;;;;11.02;6.20;;;16.00;72.90;;;;;;5089910;28;20048;-76
2022/04/12 10:06:21;;;;;;;10.68;5.75;;;16.10;69.90;;;;;;5071306;28;20091;-78
2022/04/12 10:09:00;;;;;;;8.43;5.90;;;16.10;70.40;;;;;;5054614;28;20048;-78
2022/04/12 10:11:26;;;;;;;15.60;5.57;;;16.10;70.30;;;;;;5070865;28;20091;-78
2022/04/12 10:13:52;;;;;;;8.88;5.70;;;16.20;70.70;;;;;;5038458;28;20075;-76
2022/04/12 10:16:20;;;;;;;9.85;5.88;;;16.20;71.30;;;;;;5070872;28;20048;-77
2022/04/12 10:18:46;;;;;;;8.05;5.47;;;16.30;70.30;;;;;;5071388;28;20156;-77
2022/04/12 10:21:13;;;;;;;9.85;5.50;;;16.30;69.80;;;;;;5071081;28;20044;-77
2022/04/12 10:23:46;;;;;;;8.13;5.72;;;16.30;69.80;;;;;;5054612;28;20084;-77
2022/04/12 10:26:13;;;;;;;9.30;5.50;;;16.40;68.10;;;;;;5071331;28;20101;-77
2022/04/12 10:28:40;;;;;;;14.70;6.32;;;16.40;68.30;;;;;;5054164;28;20048;-77
2022/04/12 10:31:14;;;;;;;10.63;6.07;;;16.60;68.80;;;;;;5038171;28;20036;-77
2022/04/12 10:33:40;;;;;;;11.30;5.50;;;16.70;67.00;;;;;;5071036;28;20093;-78
2022/04/12 10:36:07;;;;;;;8.93;4.95;;;16.90;68.20;;;;;;5037591;28;20083;-78
2022/04/12 10:38:41;;;;;;;6.93;5.07;;;17.00;66.10;;;;;;5070701;28;20089;-77
2022/04/12 10:41:14;;;;;;;8.63;5.68;;;17.00;64.60;;;;;;5070653;28;20046;-77
2022/04/12 10:43:40;;;;;;;8.45;5.57;;;17.10;63.80;;;;;;5071087;28;20048;-77
2022/04/12 10:46:08;;;;;;;7.63;5.80;;;17.20;65.70;;;;;;5071133;28;20048;-78
2022/04/12 10:48:34;;;;;;;9.63;5.55;;;17.30;65.30;;;;;;5070754;28;20105;-76
2022/04/12 10:51:01;;;;;;;10.57;5.60;;;17.40;64.80;;;;;;5089284;28;20032;-76
2022/04/12 10:53:36;;;;;;;9.35;5.57;;;17.50;64.90;;;;;;5053628;28;20056;-77
2022/04/12 10:56:04;;;;;;;8.75;5.85;;;17.50;62.80;;;;;;5070576;28;20051;-77
2022/04/12 10:58:33;;;;;;;8.85;5.40;;;17.50;63.60;;;;;;5070476;28;20093;-76
2022/04/12 11:00:59;;;;;;;10.35;6.15;;;17.60;63.50;;;;;;5069654;28;20044;-76
2022/04/12 11:03:44;;;;;;;7.60;5.05;;;17.60;62.60;;;;;;5070263;28;20051;-76
2022/04/12 11:06:14;;;;;;;8.43;5.53;;;17.70;58.70;;;;;;5088644;28;20487;-77
2022/04/12 11:08:47;;;;;;;10.43;6.13;;;17.70;61.70;;;;;;5054123;28;20039;-76
2022/04/12 11:11:21;;;;;;;12.40;5.80;;;17.70;60.10;;;;;;5069791;28;20052;-76
2022/04/12 11:13:49;;;;;;;11.82;6.22;;;17.80;61.60;;;;;;5088433;28;20052;-77
2022/04/12 11:16:18;;;;;;;9.48;5.88;;;17.90;62.00;;;;;;5066701;28;20049;-77
2022/04/12 11:18:52;;;;;;;9.93;6.68;;;17.90;61.30;;;;;;5066914;28;20110;-77
2022/04/12 11:21:20;;;;;;;8.23;5.95;;;18.00;59.50;;;;;;5067965;28;20048;-78
2022/04/12 11:23:52;;;;;;;11.23;6.07;;;18.10;61.60;;;;;;5066257;28;20131;-77
2022/04/12 11:26:47;;;;;;;7.05;5.32;;;18.20;60.50;;;;;;5068438;28;20048;-77
2022/04/12 11:29:21;;;;;;;8.48;5.40;;;18.30;60.20;;;;;;5068315;28;20045;-77
2022/04/12 11:31:53;;;;;;;10.38;6.05;;;18.50;60.20;;;;;;5066281;28;20055;-77
2022/04/12 11:34:21;;;;;;;8.52;5.85;;;18.60;59.60;;;;;;5050204;28;20059;-78
2022/04/12 11:36:52;;;;;;;8.50;5.80;;;18.70;60.40;;;;;;5067518;28;20098;-78
2022/04/12 11:39:26;;;;;;;9.63;5.30;;;18.70;59.90;;;;;;5067838;28;20080;-79
2022/04/12 11:42:01;;;;;;;9.38;6.18;;;18.80;59.60;;;;;;5068398;28;20052;-78
2022/04/12 11:44:27;;;;;;;8.55;5.63;;;18.80;59.50;;;;;;5067696;28;20123;-78
2022/04/12 11:46:57;;;;;;;11.73;5.85;;;18.80;60.20;;;;;;5067526;28;20115;-77
2022/04/12 11:49:30;;;;;;;9.38;6.03;;;18.90;59.60;;;;;;5066091;28;20579;-78
2022/04/12 11:52:01;;;;;;;9.80;5.53;;;18.90;59.10;;;;;;5066441;28;20044;-76
2022/04/12 11:54:34;;;;;;;10.20;5.97;;;19.00;58.80;;;;;;5067601;28;20110;-78
2022/04/12 11:57:01;;;;;;;10.55;6.10;;;19.00;57.60;;;;;;5066206;28;20040;-78
2022/04/12 11:59:29;;;;;;;10.65;6.60;;;19.00;58.90;;;;;;5067630;28;20130;-77
2022/04/12 12:02:00;;;;;;;8.10;4.88;;;19.00;58.30;;;;;;5066151;28;20133;-78
2022/04/12 12:04:31;;;;;;;7.45;5.40;;;19.10;58.40;;;;;;5065994;28;20044;-77
2022/04/12 12:06:59;;;;;;;9.45;5.65;;;19.10;57.40;;;;;;5065702;28;20037;-78
2022/04/12 12:09:26;;;;;;;8.00;5.25;;;19.10;58.20;;;;;;5066084;28;20044;-78
2022/04/12 12:11:52;;;;;;;9.88;5.55;;;19.20;58.80;;;;;;5066039;28;20053;-77
2022/04/12 12:14:20;;;;;;;8.00;5.57;;;19.20;58.70;;;;;;5065130;28;20048;-78
2022/04/12 12:17:09;;;;;;;9.20;6.10;;;19.20;58.70;;;;;;5065608;28;20057;-78
2022/04/12 12:19:39;;;;;;;8.50;6.05;;;19.30;56.90;;;;;;5065725;28;20403;-78
2022/04/12 12:22:06;;;;;;;9.38;6.05;;;19.30;57.70;;;;;;5065744;28;20337;-78
2022/04/12 12:24:37;;;;;;;11.93;7.07;;;19.40;58.10;;;;;;5049189;28;20044;-78
2022/04/12 12:27:03;;;;;;;9.25;6.20;;;19.40;58.10;;;;;;5049016;28;20420;-78
2022/04/12 12:29:34;;;;;;;10.30;5.63;;;19.40;58.10;;;;;;5067327;28;20040;-78
2022/04/12 12:31:59;;;;;;;9.48;5.95;;;19.50;58.50;;;;;;5065285;28;20059;-78
2022/04/12 12:34:30;;;;;;;10.48;5.65;;;19.50;57.40;;;;;;5049205;28;20036;-78
2022/04/12 12:36:56;;;;;;;8.75;6.43;;;19.40;57.40;;;;;;5065356;28;20052;-76
2022/04/12 12:39:21;;;;;;;10.98;5.60;;;19.30;57.20;;;;;;5066967;28;20052;-78
2022/04/12 12:41:47;;;;;;;8.00;5.38;;;19.30;57.50;;;;;;5066296;28;20048;-76
2022/04/12 12:44:13;;;;;;;8.27;6.03;;;19.30;57.30;;;;;;5066594;28;20040;-77
2022/04/12 12:46:39;;;;;;;9.43;6.38;;;19.40;57.40;;;;;;5049387;28;20102;-77
2022/04/12 12:49:23;;;;;;;8.95;6.38;;;19.50;57.60;;;;;;5065655;28;20043;-78
2022/04/12 12:51:49;;;;;;;9.75;6.35;;;19.40;56.40;;;;;;5065789;28;20136;-77
2022/04/12 12:54:17;;;;;;;9.27;5.60;;;19.40;58.00;;;;;;5066941;28;20132;-78